createdAt,value
2018-10-18T00:01:27.177Z,143914.00
2018-10-18T00:03:56.283Z,143953.91
2018-10-18T00:06:25.388Z,143950.13
2018-10-18T00:08:54.433Z,143962.61
2018-10-18T00:11:23.558Z,143960.09
2018-10-18T00:13:52.591Z,143961.36
2018-10-18T00:16:21.674Z,143960.09
2018-10-18T00:18:50.665Z,143955.11
2018-10-18T00:21:19.815Z,143956.37
2018-10-18T00:23:48.824Z,143965.09
2018-10-18T00:26:18.016Z,143938.94
2018-10-18T00:28:47.060Z,143963.83
2018-10-18T00:31:16.360Z,143957.63
2018-10-18T00:33:45.401Z,143937.67
2018-10-18T00:36:14.582Z,143945.12
2018-10-18T00:38:43.524Z,143938.94
2018-10-18T00:41:12.501Z,143928.95
2018-10-18T00:43:41.544Z,143950.13
2018-10-18T00:46:11.301Z,143982.53
2018-10-18T00:48:40.742Z,143982.53
2018-10-18T00:51:10.200Z,143965.09
2018-10-18T00:53:39.774Z,143962.61
2018-10-18T00:56:09.298Z,143946.39
2018-10-18T00:58:38.562Z,143931.42
2018-10-18T01:01:07.972Z,143963.83
2018-10-18T01:03:37.058Z,143950.13
2018-10-18T01:06:06.432Z,143950.13
2018-10-18T01:08:35.579Z,143957.63
2018-10-18T01:11:04.643Z,143937.67
2018-10-18T01:13:33.696Z,143921.45
2018-10-18T01:16:02.989Z,143917.72
2018-10-18T01:18:32.100Z,143902.77
2018-10-18T01:21:01.390Z,143921.45
2018-10-18T01:23:30.481Z,143918.98
2018-10-18T01:25:59.570Z,143920.25
2018-10-18T01:28:28.658Z,143925.23
2018-10-18T01:30:57.698Z,143927.70
2018-10-18T01:33:27.314Z,143931.42
2018-10-18T01:35:56.692Z,143915.25
2018-10-18T01:38:26.041Z,143920.25
2018-10-18T01:40:55.150Z,143917.72
2018-10-18T01:43:24.270Z,143915.25
2018-10-18T01:45:53.298Z,143884.08
2018-10-18T01:48:22.634Z,143869.16
2018-10-18T01:50:51.784Z,143874.09
2018-10-18T01:53:21.109Z,143885.33
2018-10-18T01:55:50.168Z,143895.31
2018-10-18T01:58:19.141Z,143890.31
2018-10-18T02:00:48.290Z,143905.28
2018-10-18T02:03:17.644Z,143966.34
2018-10-18T02:05:46.642Z,143962.61
2018-10-18T02:08:15.803Z,143975.06
2018-10-18T02:10:44.903Z,143973.81
2018-10-18T02:13:14.176Z,143975.06
2018-10-18T02:15:43.480Z,143946.39
2018-10-18T02:18:12.687Z,143937.67
2018-10-18T02:20:42.002Z,143938.94
2018-10-18T02:23:11.361Z,143938.94
2018-10-18T02:25:40.728Z,143922.72
2018-10-18T02:28:10.329Z,143950.13
2018-10-18T02:30:39.405Z,143950.13
2018-10-18T02:33:08.569Z,143950.13
2018-10-18T02:35:37.695Z,143955.11
2018-10-18T02:38:06.804Z,143960.09
2018-10-18T02:40:35.931Z,143943.92
2018-10-18T02:43:05.544Z,143980.05
2018-10-18T02:45:34.750Z,144007.47
2018-10-18T02:48:04.108Z,144016.19
2018-10-18T02:50:33.598Z,144003.73
2018-10-18T02:53:02.789Z,143995.02
2018-10-18T02:55:32.396Z,143987.52
2018-10-18T02:58:01.800Z,144018.70
2018-10-18T03:00:31.309Z,144011.19
2018-10-18T03:03:00.432Z,144013.72
2018-10-18T03:05:29.525Z,144024.91
2018-10-18T03:07:59.109Z,144108.53
2018-10-18T03:10:28.221Z,144081.09
2018-10-18T03:12:57.251Z,144066.08
2018-10-18T03:15:26.376Z,144064.83
2018-10-18T03:17:55.492Z,144042.39
2018-10-18T03:20:24.558Z,144053.59
2018-10-18T03:22:54.042Z,144067.30
2018-10-18T03:25:23.388Z,144067.30
2018-10-18T03:27:52.462Z,144064.83
2018-10-18T03:30:21.936Z,144047.38
2018-10-18T03:32:51.401Z,144064.83
2018-10-18T03:35:20.901Z,144073.55
2018-10-18T03:37:50.269Z,144071.08
2018-10-18T03:40:19.632Z,144051.11
2018-10-18T03:42:49.139Z,144036.14
2018-10-18T03:45:18.534Z,144029.89
2018-10-18T03:47:47.822Z,144036.14
2018-10-18T03:50:17.185Z,144042.39
2018-10-18T03:52:46.539Z,144049.84
2018-10-18T03:55:15.925Z,144031.16
2018-10-18T03:57:45.198Z,144032.41
2018-10-18T04:00:14.374Z,144038.66
2018-10-18T04:02:43.435Z,144042.39
2018-10-18T04:05:12.655Z,144049.84
2018-10-18T04:07:41.742Z,144041.13
2018-10-18T04:10:10.873Z,144063.56
2018-10-18T04:12:40.107Z,144041.13
2018-10-18T04:15:09.533Z,144073.55
2018-10-18T04:17:38.691Z,144144.67
2018-10-18T04:20:08.491Z,144108.53
2018-10-18T04:22:37.837Z,144097.28
2018-10-18T04:25:07.668Z,144074.80
2018-10-18T04:27:37.281Z,144082.31
2018-10-18T04:30:07.566Z,144066.08
2018-10-18T04:32:36.904Z,144071.08
2018-10-18T04:35:06.761Z,144069.81
2018-10-18T04:37:36.361Z,144068.55
2018-10-18T04:40:06.352Z,144077.28
2018-10-18T04:42:35.787Z,144082.31
2018-10-18T04:45:05.586Z,144064.83
2018-10-18T04:47:35.186Z,144101.02
2018-10-18T04:50:04.443Z,144117.25
2018-10-18T04:52:33.866Z,144109.73
2018-10-18T04:55:03.493Z,144135.95
2018-10-18T04:57:33.131Z,144148.41
2018-10-18T05:00:02.533Z,144193.33
2018-10-18T05:02:31.944Z,144163.37
2018-10-18T05:05:12.094Z,144142.20
2018-10-18T05:07:41.656Z,144143.41
2018-10-18T05:10:11.216Z,144127.23
2018-10-18T05:12:40.498Z,144142.20
2018-10-18T05:15:09.974Z,144174.63
2018-10-18T05:17:39.574Z,144189.59
2018-10-18T05:20:09.025Z,144228.23
2018-10-18T05:22:38.383Z,144299.34
2018-10-18T05:25:08.028Z,144269.44
2018-10-18T05:27:37.002Z,144203.31
2018-10-18T05:30:06.688Z,144197.06
2018-10-18T05:32:36.099Z,144203.31
2018-10-18T05:35:05.115Z,144263.19
2018-10-18T05:37:34.268Z,144274.44
2018-10-18T05:40:03.350Z,144321.80
2018-10-18T05:42:32.475Z,144308.08
2018-10-18T05:45:01.448Z,144371.80
2018-10-18T05:47:30.803Z,144376.80
2018-10-18T05:50:00.249Z,144400.52
2018-10-18T05:52:29.507Z,144432.97
2018-10-18T05:54:58.637Z,144446.69
2018-10-18T05:57:27.703Z,144431.70
2018-10-18T05:59:56.783Z,144442.95
2018-10-18T06:02:26.076Z,144515.34
2018-10-18T06:04:55.145Z,144456.69
2018-10-18T06:07:24.478Z,144505.41
2018-10-18T06:09:53.575Z,144491.63
2018-10-18T06:12:22.608Z,144592.84
2018-10-18T06:14:51.961Z,144639.05
2018-10-18T06:17:21.050Z,144630.31
2018-10-18T06:19:50.153Z,144666.53
2018-10-18T06:22:19.278Z,144752.75
2018-10-18T06:24:48.404Z,144686.53
2018-10-18T06:27:17.468Z,144674.05
2018-10-18T06:29:46.616Z,144771.50
2018-10-18T06:32:15.629Z,144661.53
2018-10-18T06:34:44.701Z,144599.09
2018-10-18T06:37:13.839Z,144699.06
2018-10-18T06:39:43.456Z,144897.80
2018-10-18T06:42:12.554Z,144919.08
2018-10-18T06:44:41.617Z,144944.09
2018-10-18T06:47:11.082Z,145011.59
2018-10-18T06:49:40.036Z,144957.84
2018-10-18T06:52:09.080Z,144754.03
2018-10-18T06:54:38.486Z,144714.00
2018-10-18T06:57:08.103Z,144716.53
2018-10-18T06:59:37.215Z,144599.09
2018-10-18T07:02:06.290Z,144647.78
2018-10-18T07:04:35.376Z,144712.80
2018-10-18T07:07:05.009Z,144929.09
2018-10-18T07:09:34.090Z,145030.36
2018-10-18T07:12:03.168Z,144871.56
2018-10-18T07:14:32.311Z,144831.58
2018-10-18T07:17:01.466Z,144791.52
2018-10-18T07:19:30.552Z,144800.25
2018-10-18T07:21:59.921Z,144771.50
2018-10-18T07:24:29.158Z,144770.23
2018-10-18T07:26:58.340Z,144802.78
2018-10-18T07:29:27.447Z,144920.34
2018-10-18T07:31:56.836Z,144744.02
2018-10-18T07:34:26.108Z,144569.06
2018-10-18T07:36:55.565Z,144629.06
2018-10-18T07:39:24.942Z,144696.53
2018-10-18T07:41:54.513Z,144661.53
2018-10-18T07:44:24.276Z,144791.52
2018-10-18T07:46:53.469Z,144599.09
2018-10-18T07:49:22.534Z,144616.58
2018-10-18T07:51:51.845Z,144552.84
2018-10-18T07:54:20.939Z,144671.53
2018-10-18T07:56:50.109Z,144716.53
2018-10-18T07:59:19.590Z,144661.53
2018-10-18T08:01:48.672Z,144745.28
2018-10-18T08:04:17.759Z,144610.31
2018-10-18T08:06:47.300Z,144749.02
2018-10-18T08:09:16.440Z,144629.06
2018-10-18T08:11:45.509Z,144622.84
2018-10-18T08:14:14.540Z,144681.53
2018-10-18T08:16:43.696Z,144726.53
2018-10-18T08:19:12.778Z,144732.75
2018-10-18T08:21:41.874Z,144800.25
2018-10-18T08:24:11.047Z,144765.28
2018-10-18T08:26:40.104Z,144765.28
2018-10-18T08:29:09.248Z,144719.02
2018-10-18T08:31:38.371Z,144654.05
2018-10-18T08:34:07.452Z,144751.50
2018-10-18T08:36:36.562Z,144727.75
2018-10-18T08:39:07.698Z,144846.55
2018-10-18T08:41:36.834Z,144729.02
2018-10-18T08:44:06.009Z,144825.31
2018-10-18T08:46:34.956Z,144800.25
2018-10-18T08:49:04.148Z,144734.02
2018-10-18T08:51:33.363Z,144817.73
2018-10-18T08:54:02.401Z,144960.33
2018-10-18T08:56:31.832Z,144995.36
2018-10-18T08:59:00.887Z,144974.08
2018-10-18T09:01:30.028Z,144869.08
2018-10-18T09:03:59.079Z,144809.00
2018-10-18T09:06:28.547Z,144859.08
2018-10-18T09:08:57.714Z,144811.52
2018-10-18T09:11:26.841Z,144785.25
2018-10-18T09:13:56.072Z,144864.08
2018-10-18T09:16:25.234Z,144912.81
2018-10-18T09:18:54.760Z,144761.50
2018-10-18T09:21:23.876Z,144754.03
2018-10-18T09:23:53.155Z,144816.53
2018-10-18T09:26:22.184Z,144785.25
2018-10-18T09:28:51.466Z,144771.50
2018-10-18T09:31:20.558Z,144792.78
2018-10-18T09:33:50.111Z,144796.52
2018-10-18T09:36:19.173Z,144804.00
2018-10-18T09:38:48.270Z,144710.27
2018-10-18T09:41:17.521Z,144720.28
2018-10-18T09:43:46.588Z,144716.53
2018-10-18T09:46:15.951Z,144635.31
2018-10-18T09:48:45.036Z,144629.06
2018-10-18T09:51:14.150Z,144615.31
2018-10-18T09:53:43.197Z,144595.36
2018-10-18T09:56:12.378Z,144639.05
2018-10-18T09:58:41.433Z,144565.33
2018-10-18T10:01:15.487Z,144662.78
2018-10-18T10:03:44.533Z,144499.14
2018-10-18T10:06:14.004Z,144489.14
2018-10-18T10:08:43.091Z,144461.69
2018-10-18T10:11:12.249Z,144467.94
2018-10-18T10:13:41.825Z,144454.16
2018-10-18T10:16:11.327Z,144467.94
2018-10-18T10:18:40.833Z,144472.89
2018-10-18T10:21:09.835Z,144482.87
2018-10-18T10:23:38.928Z,144540.33
2018-10-18T10:26:08.161Z,144592.84
2018-10-18T10:28:37.237Z,144701.53
2018-10-18T10:31:06.555Z,144735.28
2018-10-18T10:33:36.761Z,144769.03
2018-10-18T10:36:06.283Z,144809.00
2018-10-18T10:38:35.801Z,144775.25
2018-10-18T10:41:04.918Z,144811.52
2018-10-18T10:43:33.865Z,144796.52
2018-10-18T10:46:03.119Z,144805.25
2018-10-18T10:48:32.230Z,144851.55
2018-10-18T10:51:01.585Z,144867.81
2018-10-18T10:53:31.022Z,144952.84
2018-10-18T10:56:00.127Z,144932.83
2018-10-18T10:58:29.169Z,145010.37
2018-10-18T11:03:53.732Z,145012.86
2018-10-18T11:06:23.137Z,144924.08
2018-10-18T11:08:52.133Z,144845.33
2018-10-18T11:11:21.761Z,144890.31
2018-10-18T11:13:50.907Z,144796.52
2018-10-18T11:16:20.016Z,144826.58
2018-10-18T11:18:49.093Z,144859.08
2018-10-18T11:21:18.959Z,144824.00
2018-10-18T11:23:47.981Z,144799.00
2018-10-18T11:26:17.207Z,144849.06
2018-10-18T11:28:46.198Z,144862.81
2018-10-18T11:31:15.653Z,144912.81
2018-10-18T11:33:45.036Z,144880.31
2018-10-18T11:36:14.248Z,144879.03
2018-10-18T11:38:43.250Z,144871.56
2018-10-18T11:41:12.395Z,144909.06
2018-10-18T11:43:41.587Z,144947.84
2018-10-18T11:46:10.610Z,144944.09
2018-10-18T11:48:39.716Z,144922.81
2018-10-18T11:51:08.790Z,144979.08
2018-10-18T11:53:37.898Z,145062.97
2018-10-18T11:56:07.021Z,145123.02
2018-10-18T11:58:36.433Z,145002.84
2018-10-18T12:01:05.949Z,145080.47
2018-10-18T12:03:35.014Z,145086.75
2018-10-18T12:06:04.088Z,144971.59
2018-10-18T12:08:33.209Z,145011.59
2018-10-18T12:11:02.405Z,145017.87
2018-10-18T12:13:31.482Z,145024.14
2018-10-18T12:16:00.598Z,145072.94
2018-10-18T12:18:29.698Z,145195.56
2018-10-18T12:20:59.228Z,145299.56
2018-10-18T12:23:28.352Z,145206.84
2018-10-18T12:25:57.362Z,145146.80
2018-10-18T12:28:26.510Z,145121.75
2018-10-18T12:30:56.022Z,145263.22
2018-10-18T12:33:25.414Z,145156.81
2018-10-18T12:35:54.582Z,145184.33
2018-10-18T12:38:23.581Z,145159.28
2018-10-18T12:40:53.027Z,145337.11
2018-10-18T12:43:22.050Z,145314.53
2018-10-18T12:45:51.234Z,145451.08
2018-10-18T12:48:20.550Z,145375.89
2018-10-18T12:50:49.876Z,145378.42
2018-10-18T12:53:18.943Z,145307.05
2018-10-18T12:55:47.913Z,145174.31
2018-10-18T12:58:16.990Z,145199.36
2018-10-18T13:00:46.101Z,145124.28
2018-10-18T13:03:15.209Z,145116.75
2018-10-18T13:05:44.343Z,145101.72
2018-10-18T13:08:13.483Z,145091.70
2018-10-18T13:10:42.593Z,145111.73
2018-10-18T13:13:11.680Z,145143.05
2018-10-18T13:15:40.736Z,145205.58
2018-10-18T13:18:09.890Z,145134.25
2018-10-18T13:20:38.958Z,145205.58
2018-10-18T13:23:08.397Z,145269.50
2018-10-18T13:25:37.722Z,145327.09
2018-10-18T13:28:07.245Z,145248.14
2018-10-18T13:30:36.283Z,145206.84
2018-10-18T13:33:05.699Z,145196.83
2018-10-18T13:35:34.806Z,145136.78
2018-10-18T13:38:04.004Z,145144.27
2018-10-18T13:40:33.130Z,145069.20
2018-10-18T13:43:02.211Z,145027.87
2018-10-18T13:45:31.316Z,145081.73
2018-10-18T13:48:00.682Z,144955.33
2018-10-18T13:50:29.735Z,145027.87
2018-10-18T13:52:58.814Z,145029.14
2018-10-18T13:55:28.202Z,144965.33
2018-10-18T13:57:57.366Z,144990.36
2018-10-18T14:00:28.066Z,144890.31
2018-10-18T14:02:57.314Z,144912.81
2018-10-18T14:05:26.925Z,144980.34
2018-10-18T14:07:56.645Z,144951.58
2018-10-18T14:10:25.844Z,144859.08
2018-10-18T14:12:55.094Z,144830.31
2018-10-18T14:15:24.148Z,144814.00
2018-10-18T14:17:53.351Z,144786.52
2018-10-18T14:20:22.695Z,144761.50
2018-10-18T14:22:52.077Z,144754.03
2018-10-18T14:25:21.025Z,144689.06
2018-10-18T14:27:50.592Z,144721.53
2018-10-18T14:30:20.191Z,144741.55
2018-10-18T14:32:49.462Z,144731.53
2018-10-18T14:35:18.835Z,144760.28
2018-10-18T14:37:47.853Z,144686.53
2018-10-18T14:40:16.946Z,144664.05
2018-10-18T14:42:46.021Z,144649.05
2018-10-18T14:45:15.115Z,144641.58
2018-10-18T14:47:44.339Z,144631.58
2018-10-18T14:50:14.411Z,144626.58
2018-10-18T14:52:44.219Z,144629.06
2018-10-18T14:55:13.671Z,144610.31
2018-10-18T14:57:42.758Z,144619.05
2018-10-18T15:00:13.307Z,144622.84
2018-10-18T15:02:43.251Z,144616.58
2018-10-18T15:05:13.428Z,144607.84
2018-10-18T15:07:42.729Z,144589.06
2018-10-18T15:10:13.217Z,144582.80
2018-10-18T15:12:42.928Z,144562.80
2018-10-18T15:15:13.210Z,144561.59
2018-10-18T15:17:42.440Z,144565.33
2018-10-18T15:20:12.304Z,144545.33
2018-10-18T15:22:42.161Z,144534.08
2018-10-18T15:25:12.391Z,144530.34
2018-10-18T15:27:41.932Z,144534.08
2018-10-18T15:30:11.788Z,144526.59
2018-10-18T15:32:41.109Z,144534.08
2018-10-18T15:35:12.207Z,144529.13
2018-10-18T15:37:41.656Z,144541.59
2018-10-18T15:40:10.859Z,144566.59
2018-10-18T15:42:39.889Z,144576.53
2018-10-18T15:45:09.694Z,144564.06
2018-10-18T15:47:39.316Z,144555.33
2018-10-18T15:50:09.788Z,144577.80
2018-10-18T15:52:38.836Z,144567.80
2018-10-18T15:55:08.388Z,144584.06
2018-10-18T15:57:37.503Z,144580.31
2018-10-18T16:00:08.376Z,144586.53
2018-10-18T16:02:37.505Z,144585.31
2018-10-18T16:05:06.898Z,144567.80
2018-10-18T16:07:35.943Z,144565.33
2018-10-18T16:10:05.303Z,144562.80
2018-10-18T16:12:34.438Z,144570.31
2018-10-18T16:15:03.524Z,144571.58
2018-10-18T16:17:32.966Z,144564.06
2018-10-18T16:20:02.713Z,144562.80
2018-10-18T16:22:31.959Z,144579.06
2018-10-18T16:25:01.486Z,144582.80
2018-10-18T16:27:30.805Z,144577.80
2018-10-18T16:30:00.460Z,144574.06
2018-10-18T16:32:29.881Z,144562.80
2018-10-18T16:34:59.326Z,144574.06
2018-10-18T16:37:28.640Z,144574.06
2018-10-18T16:39:58.081Z,144570.31
2018-10-18T16:42:27.452Z,144574.06
2018-10-18T16:44:56.834Z,144559.06
2018-10-18T16:47:25.930Z,144550.33
2018-10-18T16:49:55.646Z,144556.59
2018-10-18T16:52:24.961Z,144544.06
2018-10-18T16:54:54.079Z,144544.06
2018-10-18T16:57:23.232Z,144531.59
2018-10-18T16:59:52.314Z,144515.34
2018-10-18T17:02:21.481Z,144532.86
2018-10-18T17:04:50.967Z,144519.13
2018-10-18T17:07:20.035Z,144509.13
2018-10-18T17:09:49.153Z,144494.14
2018-10-18T17:12:18.449Z,144490.41
2018-10-18T17:14:47.468Z,144474.16
2018-10-18T17:17:16.582Z,144469.16
2018-10-18T17:19:45.617Z,144467.94
2018-10-18T17:22:14.704Z,144476.67
2018-10-18T17:24:43.847Z,144480.41
2018-10-18T17:27:13.123Z,144475.41
2018-10-18T17:29:42.209Z,144472.89
2018-10-18T17:32:11.304Z,144470.41
2018-10-18T17:34:40.364Z,144470.41
2018-10-18T17:37:09.401Z,144465.42
2018-10-18T17:39:38.550Z,144465.42
2018-10-18T17:42:07.990Z,144476.67
2018-10-18T17:44:37.226Z,144467.94
2018-10-18T17:47:06.311Z,144472.89
2018-10-18T17:49:35.576Z,144472.89
2018-10-18T17:52:04.743Z,144474.16
2018-10-18T17:54:33.808Z,144467.94
2018-10-18T17:57:02.922Z,144466.69
2018-10-18T17:59:32.039Z,144461.69
2018-10-18T18:02:01.170Z,144445.44
2018-10-18T18:04:30.376Z,144446.69
2018-10-18T18:06:59.500Z,144455.42
2018-10-18T18:09:28.652Z,144439.22
2018-10-18T18:11:58.355Z,144435.44
2018-10-18T18:14:27.425Z,144435.44
2018-10-18T18:16:56.493Z,144430.44
2018-10-18T18:19:25.639Z,144429.23
2018-10-18T18:21:54.820Z,144425.50
2018-10-18T18:24:23.894Z,144415.50
2018-10-18T18:26:53.027Z,144414.23
2018-10-18T18:29:22.174Z,144402.98
2018-10-18T18:31:51.213Z,144410.50
2018-10-18T18:34:20.582Z,144416.72
2018-10-18T18:36:49.725Z,144449.16
2018-10-18T18:39:18.931Z,144431.70
2018-10-18T18:41:47.969Z,144425.50
2018-10-18T18:44:17.260Z,144424.23
2018-10-18T18:46:46.419Z,144427.97
2018-10-18T18:49:15.508Z,144420.50
2018-10-18T18:51:44.613Z,144416.72
2018-10-18T18:54:13.698Z,144419.23
2018-10-18T18:56:42.692Z,144416.72
2018-10-18T18:59:11.920Z,144411.72
2018-10-18T19:01:41.051Z,144409.25
2018-10-18T19:04:10.280Z,144416.72
2018-10-18T19:06:39.550Z,144414.23
2018-10-18T19:09:09.746Z,144425.50
2018-10-18T19:11:39.103Z,144420.50
2018-10-18T19:14:09.219Z,144417.97
2018-10-18T19:16:38.337Z,144416.72
2018-10-18T19:19:07.512Z,144419.23
2018-10-18T19:21:36.746Z,144409.25
2018-10-18T19:24:06.315Z,144407.98
2018-10-18T19:26:35.401Z,144406.72
2018-10-18T19:29:04.500Z,144404.25
2018-10-18T19:31:33.724Z,144404.25
2018-10-18T19:34:02.850Z,144394.25
2018-10-18T19:36:31.838Z,144386.78
2018-10-18T19:39:00.896Z,144379.28
2018-10-18T19:41:30.320Z,144374.28
2018-10-18T19:43:59.385Z,144404.25
2018-10-18T19:46:28.753Z,144401.78
2018-10-18T19:48:58.165Z,144370.53
2018-10-18T19:51:27.616Z,144355.55
2018-10-18T19:53:57.102Z,144339.31
2018-10-18T19:56:26.284Z,144340.56
2018-10-18T19:58:56.021Z,144324.33
2018-10-18T20:01:25.152Z,144310.59
2018-10-18T20:03:54.325Z,144295.63
2018-10-18T20:06:23.710Z,144298.14
2018-10-18T20:08:52.726Z,144289.38
2018-10-18T20:11:21.743Z,144286.89
2018-10-18T20:13:50.832Z,144279.38
2018-10-18T20:16:19.866Z,144259.45
2018-10-18T20:18:48.823Z,144239.47
2018-10-18T20:21:17.825Z,144222.03
2018-10-18T20:23:46.756Z,144212.05
2018-10-18T20:26:16.207Z,144177.09
2018-10-18T20:28:45.607Z,144168.38
2018-10-18T20:31:14.983Z,144140.94
2018-10-18T20:33:44.205Z,144137.22
2018-10-18T20:36:15.952Z,144109.73
2018-10-18T20:38:45.284Z,144093.55
2018-10-18T20:41:14.345Z,144077.28
2018-10-18T20:43:43.721Z,144052.38
2018-10-18T20:46:13.237Z,144048.59
2018-10-18T20:48:42.811Z,144041.13
2018-10-18T20:51:12.370Z,144037.41
2018-10-18T20:53:41.773Z,144031.16
2018-10-18T20:56:11.369Z,144034.87
2018-10-18T20:58:40.545Z,144016.19
2018-10-18T21:01:09.766Z,144029.89
2018-10-18T21:03:39.070Z,144019.97
2018-10-18T21:06:08.587Z,143990.03
2018-10-18T21:08:37.835Z,144001.22
2018-10-18T21:11:07.293Z,143960.09
2018-10-18T21:13:36.342Z,143977.58
2018-10-18T21:16:05.595Z,143956.37
2018-10-18T21:18:34.652Z,143988.77
2018-10-18T21:21:03.824Z,143940.14
2018-10-18T21:23:32.927Z,143932.69
2018-10-18T21:26:02.273Z,143918.98
2018-10-18T21:28:31.920Z,143906.53
2018-10-18T21:31:01.389Z,143895.31
2018-10-18T21:33:30.933Z,143890.31
2018-10-18T21:36:00.310Z,143877.88
2018-10-18T21:38:29.722Z,143855.41
2018-10-18T21:40:59.136Z,143846.69
2018-10-18T21:43:28.685Z,143847.95
2018-10-18T21:45:58.909Z,143831.73
2018-10-18T21:48:29.258Z,143825.55
2018-10-18T21:50:58.871Z,143820.56
2018-10-18T21:53:27.909Z,143811.84
2018-10-18T21:55:57.347Z,143798.14
2018-10-18T21:58:26.793Z,143798.14
2018-10-18T22:00:56.342Z,143798.14
2018-10-18T22:03:25.726Z,143805.59
2018-10-18T22:05:55.064Z,143781.88
2018-10-18T22:08:24.515Z,143805.59
2018-10-18T22:10:53.903Z,143795.62
2018-10-18T22:13:23.129Z,143784.41
2018-10-18T22:15:52.375Z,143773.17
2018-10-18T22:18:21.857Z,143756.95
2018-10-18T22:20:51.253Z,143770.66
2018-10-18T22:23:20.624Z,143773.17
2018-10-18T22:25:50.076Z,143779.41
2018-10-18T22:28:19.129Z,143766.94
2018-10-18T22:30:48.110Z,143760.73
2018-10-18T22:33:17.339Z,143775.64
2018-10-18T22:35:46.463Z,143788.13
2018-10-18T22:38:15.494Z,143771.91
2018-10-18T22:40:44.646Z,143785.61
2018-10-18T22:43:13.969Z,143780.63
2018-10-18T22:45:47.155Z,143784.41
2018-10-18T22:48:16.256Z,143750.77
2018-10-18T22:50:45.350Z,143745.78
2018-10-18T22:53:14.555Z,143743.27
2018-10-18T22:55:43.553Z,143735.81
2018-10-18T22:58:12.888Z,143761.94
2018-10-18T23:00:46.205Z,143755.75
2018-10-18T23:03:15.275Z,143760.73
2018-10-18T23:05:44.921Z,143785.61
2018-10-18T23:08:14.213Z,143783.14
2018-10-18T23:10:43.362Z,143774.44
2018-10-18T23:13:12.516Z,143761.94
2018-10-18T23:15:41.724Z,143749.50
2018-10-18T23:18:12.454Z,143748.25
2018-10-18T23:20:42.244Z,143745.78
2018-10-18T23:23:11.858Z,143742.05
2018-10-18T23:25:41.024Z,143738.28
2018-10-18T23:28:10.151Z,143743.27
2018-10-18T23:30:39.276Z,143748.25
2018-10-18T23:33:08.307Z,143745.78
2018-10-18T23:35:37.474Z,143744.52
2018-10-18T23:38:06.724Z,143750.77
2018-10-18T23:40:35.779Z,143754.48
2018-10-18T23:43:04.866Z,143763.20
2018-10-18T23:45:34.269Z,143748.25
2018-10-18T23:48:03.322Z,143746.98
2018-10-18T23:50:32.451Z,143753.23
2018-10-18T23:53:01.608Z,143753.23
2018-10-18T23:55:30.700Z,143750.77
2018-10-18T23:57:59.813Z,143735.81
